Time;durP1;ratioP1;P1;durP2;ratioP2;P2;SDS_P1;SDS_P2;PMS_P1;PMS_P2;Temp;Humidity;BMP_temperature;BMP_pressure;BME280_temperature;BME280_humidity;BME280_pressure;Samples;Min_cycle;Max_cycle;Signal;HPM_P1;HPM_P2
2023/05/31 00:02:19;;;;;;;2.92;0.52;;;11.90;99.90;;;;;;5013012;28;20085;-78
2023/05/31 00:04:45;;;;;;;1.70;0.63;;;11.90;99.90;;;;;;5024244;28;20079;-79
2023/05/31 00:07:11;;;;;;;2.15;0.73;;;11.90;99.90;;;;;;5023781;28;20031;-78
2023/05/31 00:09:36;;;;;;;2.03;0.70;;;11.90;99.90;;;;;;5018472;28;20481;-78
2023/05/31 00:12:02;;;;;;;0.63;0.40;;;11.90;99.90;;;;;;5008880;28;20033;-79
2023/05/31 00:14:27;;;;;;;1.63;0.60;;;11.90;99.90;;;;;;5005268;28;20438;-77
2023/05/31 00:16:53;;;;;;;2.90;0.70;;;11.80;99.90;;;;;;5020561;28;20539;-78
2023/05/31 00:19:19;;;;;;;1.25;0.50;;;11.80;99.90;;;;;;5015164;28;20531;-78
2023/05/31 00:21:45;;;;;;;2.47;0.60;;;11.80;99.90;;;;;;5026636;28;20033;-78
2023/05/31 00:24:11;;;;;;;2.40;0.70;;;11.80;99.90;;;;;;5014132;28;20481;-78
2023/05/31 00:26:40;;;;;;;0.98;0.60;;;11.90;99.90;;;;;;5033257;28;20043;-78
2023/05/31 00:29:06;;;;;;;1.02;0.50;;;11.90;99.90;;;;;;5028677;28;20033;-79
2023/05/31 00:31:32;;;;;;;1.35;0.45;;;11.90;99.90;;;;;;5013987;28;20812;-79
2023/05/31 00:33:57;;;;;;;1.25;0.60;;;11.80;99.90;;;;;;5006291;28;20334;-79
2023/05/31 00:36:23;;;;;;;2.08;0.68;;;11.80;99.90;;;;;;5029167;28;20090;-79
2023/05/31 00:38:49;;;;;;;1.83;0.60;;;11.80;99.90;;;;;;5020456;28;20037;-78
2023/05/31 00:41:15;;;;;;;2.22;0.80;;;11.80;99.90;;;;;;5008842;28;20029;-79
2023/05/31 00:43:40;;;;;;;0.77;0.60;;;11.80;99.90;;;;;;5005277;28;20046;-78
2023/05/31 00:46:11;;;;;;;3.35;0.65;;;11.70;99.90;;;;;;5004798;28;20054;-79
2023/05/31 00:48:38;;;;;;;4.68;0.70;;;11.80;99.90;;;;;;5004731;28;20463;-79
2023/05/31 00:51:05;;;;;;;3.53;0.50;;;11.70;99.90;;;;;;5026359;28;20026;-78
2023/05/31 00:53:31;;;;;;;2.30;0.70;;;11.70;99.90;;;;;;5032635;28;20037;-79
2023/05/31 00:55:59;;;;;;;1.42;0.60;;;11.70;99.90;;;;;;5005308;28;20831;-78
2023/05/31 00:58:27;;;;;;;0.60;0.50;;;11.60;99.90;;;;;;5005684;28;20033;-78
2023/05/31 01:00:54;;;;;;;1.42;0.60;;;11.60;99.90;;;;;;5009836;28;20034;-79
2023/05/31 01:03:20;;;;;;;1.35;0.52;;;11.50;99.90;;;;;;5031073;28;22188;-76
2023/05/31 01:05:46;;;;;;;1.02;0.50;;;11.50;99.90;;;;;;5030227;28;20396;-77
2023/05/31 01:08:14;;;;;;;4.63;0.77;;;11.50;99.90;;;;;;5017371;28;20060;-77
2023/05/31 01:10:41;;;;;;;2.28;0.75;;;11.50;99.90;;;;;;5016797;28;20523;-77
2023/05/31 01:13:20;;;;;;;3.35;0.70;;;11.50;99.90;;;;;;5004953;28;20540;-77
2023/05/31 01:15:56;;;;;;;1.42;0.70;;;11.50;99.90;;;;;;5003757;28;20127;-77
2023/05/31 01:18:26;;;;;;;1.45;0.40;;;11.50;99.90;;;;;;5009078;28;20072;-77
2023/05/31 01:20:54;;;;;;;1.60;1.23;;;11.50;99.90;;;;;;5013841;28;20034;-77
2023/05/31 01:23:36;;;;;;;3.78;0.60;;;11.50;99.90;;;;;;5038044;28;20495;-77
2023/05/31 01:26:02;;;;;;;1.88;0.60;;;11.60;99.90;;;;;;5016458;28;20032;-77
2023/05/31 01:28:32;;;;;;;1.48;0.60;;;11.50;99.90;;;;;;5027499;28;20038;-77
2023/05/31 01:31:01;;;;;;;2.28;0.65;;;11.60;99.90;;;;;;5004270;28;20026;-77
2023/05/31 01:33:28;;;;;;;3.30;0.60;;;11.50;99.90;;;;;;5020167;28;20388;-77
2023/05/31 01:35:53;;;;;;;1.67;0.50;;;11.60;99.90;;;;;;5012253;28;20090;-78
2023/05/31 01:38:19;;;;;;;1.95;0.80;;;11.60;99.90;;;;;;5039189;28;20052;-77
2023/05/31 01:40:45;;;;;;;2.08;0.60;;;11.60;99.90;;;;;;5027078;28;20088;-77
2023/05/31 01:43:12;;;;;;;0.65;0.43;;;11.60;99.90;;;;;;5012145;28;20079;-77
2023/05/31 01:45:39;;;;;;;1.55;0.57;;;11.60;99.90;;;;;;5040364;28;20028;-76
2023/05/31 01:48:06;;;;;;;6.00;0.80;;;11.60;99.90;;;;;;5020592;28;20104;-77
2023/05/31 01:50:36;;;;;;;3.83;1.00;;;11.60;99.90;;;;;;5024749;28;20044;-77
2023/05/31 01:53:03;;;;;;;1.20;0.67;;;11.60;99.90;;;;;;5018449;28;20033;-76
2023/05/31 01:55:29;;;;;;;7.85;1.40;;;11.60;99.90;;;;;;5030576;28;20109;-75
2023/05/31 01:57:56;;;;;;;2.85;0.70;;;11.70;99.90;;;;;;5015926;28;20124;-77
2023/05/31 02:00:26;;;;;;;1.13;0.60;;;11.70;99.90;;;;;;5023105;28;20404;-77
2023/05/31 02:02:52;;;;;;;2.40;0.80;;;11.70;99.90;;;;;;5016055;28;20033;-77
2023/05/31 02:05:18;;;;;;;2.35;0.50;;;11.70;99.90;;;;;;5012796;28;20059;-77
2023/05/31 02:07:45;;;;;;;4.00;0.80;;;11.60;99.90;;;;;;5031607;28;20088;-77
2023/05/31 02:10:12;;;;;;;2.33;0.77;;;11.70;99.90;;;;;;5025863;28;20109;-77
2023/05/31 02:12:37;;;;;;;2.13;1.00;;;11.70;99.90;;;;;;5018072;28;20408;-76
2023/05/31 02:15:04;;;;;;;1.92;0.75;;;11.60;99.90;;;;;;5025016;28;20100;-77
2023/05/31 02:17:32;;;;;;;2.50;0.90;;;11.60;99.90;;;;;;5013419;28;20658;-77
2023/05/31 02:19:59;;;;;;;2.53;0.80;;;11.60;99.90;;;;;;5030195;28;20064;-77
2023/05/31 02:22:25;;;;;;;3.42;0.90;;;11.60;99.90;;;;;;5026128;28;20128;-77
2023/05/31 02:24:50;;;;;;;2.80;0.80;;;11.60;99.90;;;;;;5041462;28;20140;-77
2023/05/31 02:27:16;;;;;;;2.00;0.77;;;11.50;99.90;;;;;;5020233;28;20124;-77
2023/05/31 02:29:45;;;;;;;3.03;0.90;;;11.50;99.90;;;;;;5016648;28;20033;-78
2023/05/31 02:32:11;;;;;;;4.18;0.90;;;11.50;99.90;;;;;;5017221;28;20029;-77
2023/05/31 02:34:36;;;;;;;2.35;0.60;;;11.60;99.90;;;;;;5015817;28;20041;-77
2023/05/31 02:37:02;;;;;;;3.20;0.82;;;11.50;99.90;;;;;;5016777;28;20056;-79
2023/05/31 02:39:28;;;;;;;0.95;0.60;;;11.40;99.90;;;;;;5025797;28;20032;-76
2023/05/31 02:41:54;;;;;;;2.08;0.70;;;11.50;99.90;;;;;;5044413;28;20036;-77
2023/05/31 02:44:21;;;;;;;3.35;0.73;;;11.50;99.90;;;;;;5032109;28;20033;-77
2023/05/31 02:46:46;;;;;;;3.58;0.60;;;11.60;99.90;;;;;;5006323;28;20048;-77
2023/05/31 02:49:12;;;;;;;2.42;0.88;;;11.50;99.90;;;;;;5006979;28;20101;-76
2023/05/31 02:51:38;;;;;;;4.45;0.95;;;11.50;99.90;;;;;;5020518;28;20069;-77
2023/05/31 02:54:03;;;;;;;4.22;1.00;;;11.50;99.90;;;;;;5040627;28;20085;-77
2023/05/31 02:56:29;;;;;;;1.30;0.88;;;11.50;99.90;;;;;;5043674;28;20044;-77
2023/05/31 02:58:56;;;;;;;3.70;1.42;;;11.50;99.90;;;;;;5031456;28;20451;-77
2023/05/31 03:01:21;;;;;;;4.90;2.10;;;11.40;99.90;;;;;;5005733;28;20034;-77
2023/05/31 03:03:47;;;;;;;4.20;1.60;;;11.30;99.90;;;;;;5032272;28;20029;-77
2023/05/31 03:06:19;;;;;;;2.80;1.20;;;11.20;99.90;;;;;;5021754;28;20491;-78
2023/05/31 03:08:45;;;;;;;2.85;1.30;;;11.10;99.90;;;;;;5008904;28;20428;-77
2023/05/31 03:11:11;;;;;;;3.70;1.83;;;11.00;99.90;;;;;;5024496;28;20056;-77
2023/05/31 03:13:36;;;;;;;5.30;1.95;;;11.00;99.90;;;;;;5011914;28;20033;-77
2023/05/31 03:16:02;;;;;;;4.85;1.75;;;11.00;99.90;;;;;;5022850;28;20115;-77
2023/05/31 03:18:27;;;;;;;4.95;1.70;;;11.00;99.90;;;;;;5008009;28;20041;-77
2023/05/31 03:20:53;;;;;;;5.53;1.80;;;11.00;99.90;;;;;;5031016;28;20029;-77
2023/05/31 03:23:18;;;;;;;5.68;2.05;;;10.90;99.90;;;;;;5035367;28;20060;-77
2023/05/31 03:25:44;;;;;;;14.90;6.03;;;10.90;99.90;;;;;;5014851;28;20144;-77
2023/05/31 03:28:10;;;;;;;6.40;2.40;;;10.70;99.90;;;;;;5013918;28;20029;-77
2023/05/31 03:30:36;;;;;;;9.05;4.00;;;10.60;99.90;;;;;;5017752;28;20033;-77
2023/05/31 03:33:02;;;;;;;7.28;2.60;;;10.60;99.90;;;;;;5041809;28;20025;-77
2023/05/31 03:35:28;;;;;;;6.35;2.97;;;10.50;99.90;;;;;;5010169;28;20492;-77
2023/05/31 03:37:53;;;;;;;5.40;2.08;;;10.50;99.90;;;;;;5015691;28;20045;-76
2023/05/31 03:40:20;;;;;;;5.68;2.15;;;10.50;99.90;;;;;;5030652;28;20025;-77
2023/05/31 03:42:45;;;;;;;4.03;1.75;;;10.40;99.90;;;;;;5015268;28;21256;-77
2023/05/31 03:45:11;;;;;;;4.28;2.10;;;10.40;99.90;;;;;;5005072;28;20084;-77
2023/05/31 03:47:36;;;;;;;3.10;1.63;;;10.40;99.90;;;;;;5020295;28;20218;-76
2023/05/31 03:50:04;;;;;;;4.32;2.13;;;10.50;99.90;;;;;;5012775;28;20080;-77
2023/05/31 03:52:30;;;;;;;3.17;1.90;;;10.50;99.90;;;;;;5021598;28;20440;-78
2023/05/31 03:54:55;;;;;;;3.97;2.03;;;10.70;99.90;;;;;;5023562;28;20035;-77
2023/05/31 03:57:21;;;;;;;3.80;1.75;;;10.80;99.90;;;;;;5040458;28;20509;-77
2023/05/31 03:59:47;;;;;;;2.00;1.55;;;10.90;99.90;;;;;;5029585;28;20049;-77
2023/05/31 04:02:12;;;;;;;5.95;2.42;;;11.00;99.90;;;;;;5024135;28;20072;-76
2023/05/31 04:04:38;;;;;;;4.75;1.73;;;11.10;99.90;;;;;;5018848;28;20030;-78
2023/05/31 04:07:04;;;;;;;5.15;2.20;;;11.20;99.90;;;;;;5042092;28;20057;-77
2023/05/31 04:09:29;;;;;;;6.03;1.50;;;11.30;99.90;;;;;;5033032;28;20057;-77
2023/05/31 04:11:55;;;;;;;5.03;2.33;;;11.40;99.90;;;;;;5029811;28;20037;-77
2023/05/31 04:14:21;;;;;;;5.28;2.17;;;11.40;99.90;;;;;;5011635;28;20022;-78
2023/05/31 04:16:46;;;;;;;3.65;1.60;;;11.50;99.90;;;;;;5016661;28;20052;-79
2023/05/31 04:19:12;;;;;;;2.72;1.50;;;11.60;99.90;;;;;;5013207;28;20108;-78
2023/05/31 04:21:38;;;;;;;4.68;1.50;;;11.60;99.90;;;;;;5020008;28;20036;-78
2023/05/31 04:24:04;;;;;;;3.63;1.73;;;11.70;99.90;;;;;;5013511;28;20111;-78
2023/05/31 04:26:32;;;;;;;2.65;1.52;;;11.70;99.90;;;;;;5017916;28;20025;-79
2023/05/31 04:28:57;;;;;;;2.55;1.23;;;11.80;99.90;;;;;;5017152;28;20034;-78
2023/05/31 04:31:28;;;;;;;2.63;1.20;;;11.80;99.90;;;;;;5026193;28;20032;-78
2023/05/31 04:33:56;;;;;;;2.70;1.45;;;11.90;99.90;;;;;;5008764;28;20547;-78
2023/05/31 04:36:25;;;;;;;6.00;1.60;;;11.90;99.90;;;;;;5033815;28;20021;-78
2023/05/31 04:38:54;;;;;;;2.70;1.10;;;11.90;99.90;;;;;;5030530;28;20061;-78
2023/05/31 04:41:25;;;;;;;3.00;1.50;;;12.00;99.90;;;;;;5022762;28;20025;-76
2023/05/31 04:43:54;;;;;;;2.85;1.73;;;12.00;99.90;;;;;;5022354;28;20128;-78
2023/05/31 04:46:21;;;;;;;4.57;1.90;;;12.00;99.90;;;;;;5036965;28;20075;-77
2023/05/31 04:48:49;;;;;;;9.23;3.55;;;11.90;99.90;;;;;;5004950;28;20045;-77
2023/05/31 04:51:16;;;;;;;8.07;2.83;;;12.00;99.90;;;;;;5014239;28;20032;-77
2023/05/31 04:53:41;;;;;;;4.45;1.70;;;12.10;99.90;;;;;;5012008;28;20179;-77
2023/05/31 04:56:09;;;;;;;5.00;1.85;;;12.10;99.90;;;;;;5022656;28;20105;-77
2023/05/31 04:58:35;;;;;;;4.10;1.70;;;12.10;99.90;;;;;;5018092;28;20037;-77
2023/05/31 05:01:00;;;;;;;8.15;2.25;;;12.10;99.90;;;;;;5014159;28;20040;-78
2023/05/31 05:03:26;;;;;;;4.72;2.20;;;12.10;99.90;;;;;;5040769;28;20139;-77
2023/05/31 05:05:52;;;;;;;4.47;2.13;;;12.20;99.90;;;;;;5027812;28;20029;-77
2023/05/31 05:08:18;;;;;;;5.40;2.90;;;12.30;99.90;;;;;;5010821;28;20039;-77
2023/05/31 05:10:44;;;;;;;5.45;2.42;;;12.30;99.90;;;;;;5018390;28;20439;-77
2023/05/31 05:13:10;;;;;;;5.00;2.20;;;12.40;99.90;;;;;;5006048;28;20116;-77
2023/05/31 05:15:35;;;;;;;5.00;2.13;;;12.40;99.90;;;;;;5018762;28;20524;-77
2023/05/31 05:18:02;;;;;;;5.35;1.83;;;12.50;99.90;;;;;;5020466;28;20043;-77
2023/05/31 05:20:28;;;;;;;5.47;2.00;;;12.50;99.90;;;;;;5008859;28;20123;-77
2023/05/31 05:22:53;;;;;;;5.28;2.08;;;12.60;99.90;;;;;;5027105;28;20068;-77
2023/05/31 05:25:20;;;;;;;4.75;2.40;;;12.70;99.90;;;;;;5018067;28;20033;-77
2023/05/31 05:27:46;;;;;;;4.80;2.20;;;12.70;99.90;;;;;;5016396;28;20576;-77
2023/05/31 05:30:12;;;;;;;6.40;2.70;;;12.60;99.90;;;;;;5028989;28;20132;-76
2023/05/31 05:32:38;;;;;;;4.03;2.30;;;12.70;99.90;;;;;;5007277;28;20068;-77
2023/05/31 05:35:05;;;;;;;5.05;2.50;;;12.90;99.90;;;;;;5026055;28;20560;-77
2023/05/31 05:37:31;;;;;;;7.25;2.75;;;13.00;99.90;;;;;;5039402;28;20428;-77
2023/05/31 05:39:57;;;;;;;7.40;2.67;;;13.20;99.90;;;;;;5037989;28;20128;-77
2023/05/31 05:42:23;;;;;;;5.38;2.75;;;13.40;99.90;;;;;;5031132;28;20036;-77
2023/05/31 05:44:49;;;;;;;3.72;2.05;;;13.60;99.90;;;;;;5023581;28;20049;-77
2023/05/31 05:47:15;;;;;;;6.75;2.70;;;13.50;99.90;;;;;;5015319;28;20832;-77
2023/05/31 05:49:40;;;;;;;12.77;3.50;;;13.40;99.90;;;;;;5032980;28;20130;-78
2023/05/31 05:52:06;;;;;;;7.15;2.80;;;13.20;99.90;;;;;;5013965;28;20040;-77
2023/05/31 05:54:32;;;;;;;8.30;2.95;;;13.10;99.90;;;;;;5022498;28;20048;-77
2023/05/31 05:56:58;;;;;;;10.32;3.10;;;13.00;99.90;;;;;;5019795;28;20037;-77
2023/05/31 05:59:23;;;;;;;8.00;3.33;;;12.90;99.90;;;;;;5021871;28;20393;-77
2023/05/31 06:01:50;;;;;;;8.00;2.92;;;12.70;99.90;;;;;;5031128;28;20029;-77
2023/05/31 06:04:15;;;;;;;6.43;2.70;;;12.70;99.90;;;;;;5027062;28;20021;-77
2023/05/31 06:06:41;;;;;;;6.20;2.75;;;12.70;99.90;;;;;;5023747;28;20110;-77
2023/05/31 06:09:07;;;;;;;18.40;8.90;;;12.70;99.90;;;;;;5036462;28;20603;-77
2023/05/31 06:11:33;;;;;;;6.53;3.30;;;12.80;99.90;;;;;;5028360;28;20087;-77
2023/05/31 06:13:58;;;;;;;4.07;2.70;;;12.90;99.90;;;;;;5023955;28;20563;-78
2023/05/31 06:16:24;;;;;;;6.15;2.55;;;13.00;99.90;;;;;;5023940;28;20091;-77
2023/05/31 06:18:50;;;;;;;4.82;2.90;;;13.10;99.90;;;;;;5017601;28;20521;-78
2023/05/31 06:21:16;;;;;;;6.82;2.88;;;13.20;99.90;;;;;;5039614;28;20017;-77
2023/05/31 06:23:41;;;;;;;21.95;13.30;;;13.30;99.90;;;;;;5014674;28;20138;-78
2023/05/31 06:26:07;;;;;;;5.13;2.90;;;13.20;99.90;;;;;;5015358;28;20666;-78
2023/05/31 06:28:34;;;;;;;7.07;2.85;;;13.30;99.90;;;;;;5018127;28;20321;-78
2023/05/31 06:31:00;;;;;;;6.35;3.15;;;13.40;99.90;;;;;;5012502;28;20033;-78
2023/05/31 06:33:26;;;;;;;7.55;2.63;;;13.70;99.90;;;;;;5011123;28;20484;-78
2023/05/31 06:35:52;;;;;;;6.53;2.83;;;13.90;99.90;;;;;;5030903;28;20045;-81
2023/05/31 06:38:17;;;;;;;3.92;2.40;;;13.90;99.90;;;;;;5016093;28;20128;-78
2023/05/31 06:40:43;;;;;;;5.60;3.08;;;14.10;99.90;;;;;;5023974;28;20045;-78
2023/05/31 06:43:10;;;;;;;6.25;2.70;;;14.00;99.90;;;;;;5007201;28;20041;-78
2023/05/31 06:45:37;;;;;;;6.07;2.92;;;14.30;99.90;;;;;;5026329;28;20040;-79
2023/05/31 06:48:03;;;;;;;3.15;2.30;;;14.40;99.90;;;;;;5025459;28;20029;-78
2023/05/31 06:50:29;;;;;;;3.35;2.33;;;14.80;99.90;;;;;;5021213;28;20053;-79
2023/05/31 06:52:55;;;;;;;3.53;2.17;;;15.10;99.90;;;;;;5003662;28;20477;-78
2023/05/31 06:55:20;;;;;;;7.88;3.40;;;15.20;99.90;;;;;;5006988;28;20033;-78
2023/05/31 06:57:46;;;;;;;3.85;2.72;;;15.40;99.90;;;;;;5006536;28;20064;-79
2023/05/31 07:00:12;;;;;;;3.75;2.67;;;14.90;99.90;;;;;;5009897;28;20477;-79
2023/05/31 07:02:37;;;;;;;5.68;3.05;;;15.20;99.90;;;;;;5012302;28;20041;-79
2023/05/31 07:05:03;;;;;;;4.60;2.65;;;15.30;99.90;;;;;;5026509;28;20097;-78
2023/05/31 07:07:29;;;;;;;5.38;3.00;;;15.40;99.90;;;;;;5011343;28;20829;-79
2023/05/31 07:09:55;;;;;;;4.00;3.10;;;15.20;99.90;;;;;;5014222;28;20033;-79
2023/05/31 07:12:20;;;;;;;7.10;3.80;;;14.90;99.90;;;;;;5031093;28;20061;-78
2023/05/31 07:14:46;;;;;;;6.97;3.30;;;14.60;99.90;;;;;;5007581;28;20064;-78
2023/05/31 07:17:12;;;;;;;5.57;3.50;;;14.30;99.90;;;;;;5030052;28;20029;-79
2023/05/31 07:19:47;;;;;;;5.95;3.38;;;14.10;99.90;;;;;;5034897;28;20033;-78
2023/05/31 07:22:17;;;;;;;6.03;3.53;;;13.80;99.90;;;;;;5013267;28;20029;-78
2023/05/31 07:24:43;;;;;;;9.00;3.50;;;13.80;99.90;;;;;;5036939;28;20053;-78
2023/05/31 07:27:10;;;;;;;5.28;3.38;;;14.20;99.90;;;;;;5023514;28;20029;-78
2023/05/31 07:29:36;;;;;;;5.20;2.88;;;14.60;99.90;;;;;;5028538;28;20650;-77
2023/05/31 07:32:02;;;;;;;6.72;3.08;;;14.90;99.90;;;;;;5014895;28;20065;-78
2023/05/31 07:34:27;;;;;;;5.88;2.80;;;15.40;99.90;;;;;;5007579;28;20021;-78
2023/05/31 07:36:53;;;;;;;6.45;2.47;;;15.50;99.90;;;;;;5014791;28;20782;-78
2023/05/31 07:39:21;;;;;;;5.75;2.78;;;15.20;99.90;;;;;;5017637;28;20021;-79
2023/05/31 07:41:47;;;;;;;4.47;2.75;;;14.90;99.90;;;;;;5029771;28;20092;-78
2023/05/31 07:44:13;;;;;;;6.32;3.03;;;14.60;99.90;;;;;;5032964;28;20053;-78
2023/05/31 07:46:38;;;;;;;6.95;3.38;;;14.40;99.90;;;;;;5042400;28;20492;-78
2023/05/31 07:49:04;;;;;;;8.40;3.22;;;14.30;99.90;;;;;;5020644;28;20777;-78
2023/05/31 07:51:30;;;;;;;3.75;2.72;;;14.30;99.90;;;;;;5036714;28;20043;-78
2023/05/31 07:53:56;;;;;;;6.28;3.00;;;14.40;99.90;;;;;;5034391;28;20064;-78
2023/05/31 07:56:22;;;;;;;5.93;3.33;;;14.30;99.90;;;;;;5013156;28;20433;-78
2023/05/31 07:58:48;;;;;;;8.95;3.25;;;14.40;99.90;;;;;;5012304;28;20033;-78
2023/05/31 08:01:13;;;;;;;4.53;3.00;;;14.80;99.90;;;;;;5040195;28;20389;-78
2023/05/31 08:03:40;;;;;;;4.55;2.83;;;15.40;99.90;;;;;;5027300;28;20465;-78
2023/05/31 08:06:06;;;;;;;4.95;2.75;;;15.90;99.90;;;;;;5036365;28;20445;-78
2023/05/31 08:08:32;;;;;;;6.25;3.22;;;16.20;99.90;;;;;;5030907;28;20033;-78
2023/05/31 08:10:59;;;;;;;3.95;2.80;;;16.20;99.90;;;;;;5021838;28;20471;-78
2023/05/31 08:13:24;;;;;;;4.97;2.65;;;16.10;99.90;;;;;;5015332;28;20034;-78
2023/05/31 08:15:51;;;;;;;4.50;3.03;;;16.20;99.90;;;;;;5009909;28;20490;-79
2023/05/31 08:18:17;;;;;;;4.60;3.08;;;16.10;99.90;;;;;;5023001;28;20574;-78
2023/05/31 08:20:43;;;;;;;4.93;3.28;;;16.10;99.90;;;;;;5024619;28;20159;-78
2023/05/31 08:23:09;;;;;;;4.18;2.58;;;16.50;99.90;;;;;;5011644;28;20128;-78
2023/05/31 08:25:34;;;;;;;7.25;2.67;;;16.70;99.90;;;;;;5011588;28;20041;-78
2023/05/31 08:28:00;;;;;;;4.53;2.80;;;17.90;99.90;;;;;;5006795;28;20040;-78
2023/05/31 08:30:27;;;;;;;7.90;3.00;;;18.00;97.50;;;;;;5032261;28;20048;-79
2023/05/31 08:32:52;;;;;;;6.32;2.53;;;18.70;98.30;;;;;;5036318;28;20033;-80
2023/05/31 08:35:18;;;;;;;6.15;2.53;;;19.40;96.60;;;;;;5013945;28;20037;-80
2023/05/31 08:37:45;;;;;;;5.25;2.40;;;19.50;93.90;;;;;;5033014;28;20299;-79
2023/05/31 08:40:10;;;;;;;5.05;2.78;;;19.40;93.70;;;;;;5031051;28;20056;-80
2023/05/31 08:42:36;;;;;;;7.20;3.08;;;19.90;93.00;;;;;;5029091;28;20064;-79
2023/05/31 08:45:02;;;;;;;6.43;2.88;;;19.50;92.30;;;;;;5006890;28;20067;-80
2023/05/31 08:47:36;;;;;;;3.97;2.75;;;19.50;94.70;;;;;;5025175;28;20673;-80
2023/05/31 08:50:03;;;;;;;6.60;3.30;;;19.40;94.00;;;;;;5017865;28;20022;-80
2023/05/31 08:52:31;;;;;;;6.70;3.13;;;19.00;93.70;;;;;;5024113;28;20075;-79
2023/05/31 08:54:58;;;;;;;8.02;3.17;;;19.50;93.40;;;;;;5010041;28;20036;-79
2023/05/31 08:57:24;;;;;;;7.00;3.22;;;19.70;92.90;;;;;;5026839;28;20037;-79
2023/05/31 08:59:50;;;;;;;6.88;3.42;;;20.20;92.00;;;;;;5037069;28;20091;-79
2023/05/31 09:02:16;;;;;;;6.05;3.20;;;20.30;91.40;;;;;;5008205;28;20041;-79
2023/05/31 09:04:42;;;;;;;4.75;2.50;;;20.30;91.90;;;;;;5010167;28;20133;-80
2023/05/31 09:07:08;;;;;;;4.50;2.88;;;21.70;91.60;;;;;;5017656;28;20037;-79
2023/05/31 09:09:34;;;;;;;6.95;3.28;;;22.20;83.70;;;;;;5026180;28;20099;-79
2023/05/31 09:12:00;;;;;;;4.43;3.00;;;22.20;84.50;;;;;;5033031;28;20048;-80
2023/05/31 09:14:26;;;;;;;5.95;3.15;;;23.30;76.70;;;;;;5030547;28;20519;-80
2023/05/31 09:16:52;;;;;;;5.72;2.55;;;25.90;60.00;;;;;;5024637;28;20484;-80
2023/05/31 09:19:17;;;;;;;6.15;2.80;;;28.20;49.70;;;;;;5015673;28;20033;-81
2023/05/31 09:21:45;;;;;;;6.18;2.60;;;29.30;50.00;;;;;;5004979;28;20025;-79
2023/05/31 09:24:12;;;;;;;6.05;2.45;;;27.80;44.60;;;;;;5022169;28;20028;-79
2023/05/31 09:26:49;;;;;;;8.73;3.20;;;27.30;50.70;;;;;;5028603;28;20517;-79
2023/05/31 09:29:17;;;;;;;6.95;3.28;;;26.00;46.70;;;;;;5009401;28;20033;-79
2023/05/31 09:31:43;;;;;;;5.65;3.10;;;25.30;51.10;;;;;;5023633;28;20417;-79
2023/05/31 09:34:26;;;;;;;7.28;2.70;;;25.70;48.50;;;;;;5031861;28;20045;-79
2023/05/31 09:36:52;;;;;;;7.13;2.53;;;27.80;49.90;;;;;;5030303;28;20155;-79
2023/05/31 09:39:19;;;;;;;7.65;2.83;;;27.30;47.60;;;;;;5029524;28;20105;-79
2023/05/31 09:41:49;;;;;;;6.80;3.28;;;26.80;47.10;;;;;;5007019;28;20787;-79
2023/05/31 09:44:15;;;;;;;6.07;2.70;;;25.40;50.30;;;;;;5022702;28;20176;-78
2023/05/31 09:46:41;;;;;;;8.38;2.80;;;26.30;53.90;;;;;;5031190;28;20111;-78
2023/05/31 09:49:09;;;;;;;5.72;2.53;;;28.50;48.20;;;;;;5027685;28;20026;-78
2023/05/31 09:51:35;;;;;;;5.53;2.53;;;29.30;44.80;;;;;;5027987;28;20124;-78
2023/05/31 09:54:07;;;;;;;4.68;2.60;;;29.30;42.30;;;;;;5011823;28;20041;-79
2023/05/31 09:56:36;;;;;;;7.90;3.08;;;29.60;48.00;;;;;;5004680;28;20029;-78
2023/05/31 09:59:03;;;;;;;5.70;2.95;;;28.30;43.70;;;;;;5011820;28;20044;-79
2023/05/31 10:01:30;;;;;;;6.32;3.47;;;27.80;44.30;;;;;;5022128;28;20076;-78
2023/05/31 10:03:59;;;;;;;3.85;2.13;;;26.40;45.70;;;;;;5026081;28;20152;-79
2023/05/31 10:06:24;;;;;;;7.25;2.50;;;28.60;45.20;;;;;;5013391;28;20057;-78
2023/05/31 10:08:51;;;;;;;5.45;2.92;;;31.30;42.10;;;;;;5012159;28;20763;-78
2023/05/31 10:11:28;;;;;;;6.13;2.75;;;30.70;37.90;;;;;;5022789;28;20038;-79
2023/05/31 10:13:59;;;;;;;4.80;2.65;;;29.10;40.40;;;;;;5017950;28;20048;-79
2023/05/31 10:16:31;;;;;;;;;;;29.00;42.10;;;;;;5022133;28;20131;-78
2023/05/31 10:19:02;;;;;;;9.43;3.17;;;27.60;42.20;;;;;;5057190;28;19978;-80
2023/05/31 10:21:28;;;;;;;;;;;26.40;43.00;;;;;;5034585;28;20053;-81
2023/05/31 10:24:01;;;;;;;6.80;3.25;;;24.80;48.60;;;;;;5012013;28;20360;-79
2023/05/31 10:26:51;;;;;;;5.15;2.75;;;24.30;50.90;;;;;;5006528;28;20330;-80
2023/05/31 10:29:21;;;;;;;8.27;3.20;;;24.60;52.90;;;;;;5004878;28;20026;-80
2023/05/31 10:31:51;;;;;;;7.20;3.85;;;24.30;53.70;;;;;;5013286;28;20052;-79
2023/05/31 10:34:23;;;;;;;8.90;3.90;;;23.10;56.50;;;;;;5025546;28;20103;-80
2023/05/31 10:36:53;;;;;;;7.95;3.80;;;22.80;61.10;;;;;;5005935;28;20521;-80
2023/05/31 10:39:29;;;;;;;10.30;4.20;;;21.70;65.70;;;;;;5026461;28;20040;-79
2023/05/31 10:42:21;;;;;;;9.88;4.10;;;21.20;76.90;;;;;;5027735;28;20111;-80
2023/05/31 10:45:12;;;;;;;6.93;3.38;;;21.90;84.60;;;;;;5018298;28;20057;-79
2023/05/31 10:47:45;;;;;;;17.63;5.95;;;25.30;68.30;;;;;;5003644;28;20041;-79
2023/05/31 10:50:18;;;;;;;13.13;5.07;;;27.30;50.80;;;;;;5014727;28;20065;-80
2023/05/31 10:52:47;;;;;;;12.70;6.07;;;26.30;50.20;;;;;;5004533;28;20941;-79
2023/05/31 10:55:21;;;;;;;7.60;3.28;;;25.80;52.40;;;;;;5002663;28;20029;-79
2023/05/31 10:57:52;;;;;;;7.60;3.40;;;24.80;57.20;;;;;;4998408;28;20049;-80
2023/05/31 11:00:23;;;;;;;8.57;3.80;;;24.40;55.60;;;;;;5006750;28;20036;-80
2023/05/31 11:02:56;;;;;;;9.07;4.00;;;23.30;56.60;;;;;;5009159;28;20044;-80
2023/05/31 11:05:24;;;;;;;8.05;3.85;;;21.80;63.80;;;;;;5017873;28;20096;-79
2023/05/31 11:07:51;;;;;;;7.60;3.72;;;21.80;74.70;;;;;;5017345;28;20026;-80
2023/05/31 11:10:34;;;;;;;7.65;3.40;;;23.20;71.70;;;;;;5019626;28;20048;-80
2023/05/31 11:13:04;;;;;;;6.20;2.90;;;25.90;58.40;;;;;;5018847;28;20461;-80
2023/05/31 11:15:43;;;;;;;5.90;2.92;;;28.80;49.00;;;;;;5023404;28;20029;-80
2023/05/31 11:18:12;;;;;;;7.57;3.50;;;29.10;45.70;;;;;;4992137;28;20124;-80
2023/05/31 11:20:38;;;;;;;9.52;3.83;;;27.20;45.10;;;;;;5013746;28;20123;-80
2023/05/31 11:23:23;;;;;;;8.23;3.80;;;27.30;50.50;;;;;;4998334;28;20179;-80
2023/05/31 11:26:07;;;;;;;9.15;3.92;;;27.30;51.80;;;;;;5010203;28;20033;-80
2023/05/31 11:28:57;;;;;;;7.80;3.35;;;26.20;49.80;;;;;;5011143;28;20034;-80
2023/05/31 11:31:50;;;;;;;7.60;3.38;;;26.00;52.70;;;;;;5013416;28;20022;-79
2023/05/31 11:34:26;;;;;;;9.20;4.35;;;25.00;56.50;;;;;;5019012;28;20059;-79
2023/05/31 11:36:52;;;;;;;5.20;3.00;;;23.90;66.40;;;;;;5020521;28;20065;-79
2023/05/31 11:39:21;;;;;;;7.50;3.38;;;23.90;71.70;;;;;;5005272;28;20049;-80
2023/05/31 11:41:46;;;;;;;8.45;3.13;;;24.50;67.00;;;;;;5009349;28;20030;-80
2023/05/31 11:44:16;;;;;;;7.22;3.13;;;24.80;67.50;;;;;;5049061;28;20502;-80
2023/05/31 11:46:46;;;;;;;6.22;3.35;;;25.10;65.30;;;;;;5038582;28;20068;-80
2023/05/31 11:49:13;;;;;;;7.43;2.97;;;24.70;60.80;;;;;;5036566;28;20025;-79
2023/05/31 11:51:43;;;;;;;7.05;3.00;;;24.30;59.20;;;;;;4681857;28;10000473;-80
2023/05/31 11:54:11;;;;;;;5.27;3.03;;;23.80;61.10;;;;;;5018586;28;20040;-80
2023/05/31 11:56:37;;;;;;;8.63;3.47;;;23.90;64.70;;;;;;5050118;28;20034;-80
2023/05/31 11:59:03;;;;;;;6.22;3.55;;;23.60;65.70;;;;;;5033203;28;20089;-80
2023/05/31 12:01:35;;;;;;;8.27;3.72;;;23.60;66.00;;;;;;5056723;28;20108;-80
2023/05/31 12:04:01;;;;;;;6.53;3.70;;;23.30;67.60;;;;;;5021640;28;20025;-80
2023/05/31 12:06:28;;;;;;;5.53;3.20;;;23.40;68.10;;;;;;5036564;28;20035;-80
2023/05/31 12:08:54;;;;;;;10.23;3.47;;;23.20;74.40;;;;;;5033423;28;20044;-80
2023/05/31 12:11:21;;;;;;;10.57;3.80;;;23.10;73.80;;;;;;5030752;28;20392;-79
2023/05/31 12:13:47;;;;;;;6.55;3.38;;;22.90;77.30;;;;;;5030156;28;20029;-78
2023/05/31 12:16:13;;;;;;;5.90;3.92;;;23.20;78.70;;;;;;5030712;28;20100;-80
2023/05/31 12:18:39;;;;;;;7.85;3.75;;;22.80;71.40;;;;;;5031249;28;20120;-79
2023/05/31 12:21:07;;;;;;;9.65;3.53;;;21.70;75.80;;;;;;5028829;28;20025;-79
2023/05/31 12:23:50;;;;;;;5.88;3.88;;;21.70;82.30;;;;;;5032648;28;20036;-80
2023/05/31 12:26:15;;;;;;;5.25;3.53;;;21.40;81.70;;;;;;5021959;28;20038;-79
2023/05/31 12:28:42;;;;;;;8.43;4.72;;;21.80;81.90;;;;;;5032270;28;20037;-80
2023/05/31 12:31:08;;;;;;;7.85;3.60;;;21.40;79.60;;;;;;5025032;28;20473;-80
2023/05/31 12:33:36;;;;;;;10.27;4.20;;;22.00;88.30;;;;;;5035027;28;20044;-80
2023/05/31 12:36:03;;;;;;;5.82;4.07;;;22.50;82.60;;;;;;5036071;28;20525;-80
2023/05/31 12:38:29;;;;;;;7.53;4.43;;;22.20;75.90;;;;;;5019788;28;20642;-80
2023/05/31 12:40:55;;;;;;;6.20;3.80;;;22.40;80.20;;;;;;5042982;28;20033;-79
2023/05/31 12:43:21;;;;;;;8.02;4.30;;;22.80;80.40;;;;;;5041562;28;20037;-80
2023/05/31 12:45:47;;;;;;;4.93;3.58;;;22.50;80.70;;;;;;5014940;28;20033;-79
2023/05/31 12:48:12;;;;;;;6.60;3.80;;;22.20;79.20;;;;;;5022796;28;20460;-79
2023/05/31 12:50:48;;;;;;;7.90;3.67;;;22.40;81.70;;;;;;5011786;28;20401;-82